createdAt,value
2017-10-14T00:01:41.815Z,10.87
2017-10-14T00:04:09.313Z,14.23
2017-10-14T00:06:36.801Z,11.43
2017-10-14T00:09:04.390Z,10.97
2017-10-14T00:11:31.890Z,11.60
2017-10-14T00:13:59.412Z,9.83
2017-10-14T00:16:27.681Z,11.10
2017-10-14T00:18:55.212Z,16.40
2017-10-14T00:21:22.703Z,13.33
2017-10-14T00:23:50.233Z,13.07
2017-10-14T00:26:17.724Z,12.90
2017-10-14T00:28:45.289Z,7.40
2017-10-14T00:31:12.784Z,12.67
2017-10-14T00:33:40.349Z,14.50
2017-10-14T00:36:07.875Z,18.37
2017-10-14T00:38:35.381Z,10.73
2017-10-14T00:41:02.946Z,8.33
2017-10-14T00:43:30.453Z,14.07
2017-10-14T00:45:57.988Z,12.57
2017-10-14T00:48:25.493Z,10.63
2017-10-14T00:50:53.021Z,10.80
2017-10-14T00:53:20.509Z,24.53
2017-10-14T00:55:48.034Z,12.30
2017-10-14T00:58:15.904Z,16.97
2017-10-14T01:00:43.485Z,11.40
2017-10-14T01:03:11.408Z,14.17
2017-10-14T01:05:38.917Z,9.00
2017-10-14T01:08:06.462Z,12.00
2017-10-14T01:10:33.956Z,8.60
2017-10-14T01:13:01.474Z,17.50
2017-10-14T01:15:28.985Z,12.50
2017-10-14T01:17:56.780Z,16.13
2017-10-14T01:20:24.319Z,10.00
2017-10-14T01:22:51.849Z,12.13
2017-10-14T01:25:20.180Z,12.47
2017-10-14T01:27:47.721Z,19.10
2017-10-14T01:30:15.213Z,12.70
2017-10-14T01:32:42.713Z,13.40
2017-10-14T01:35:10.244Z,17.23
2017-10-14T01:37:37.755Z,11.23
2017-10-14T01:40:05.280Z,18.57
2017-10-14T01:42:33.559Z,16.60
2017-10-14T01:45:01.850Z,11.53
2017-10-14T01:47:30.105Z,18.47
2017-10-14T01:49:57.632Z,13.80
2017-10-14T01:52:25.117Z,16.27
2017-10-14T01:54:52.706Z,12.97
2017-10-14T01:57:20.222Z,11.27
2017-10-14T01:59:47.770Z,10.90
2017-10-14T02:02:15.271Z,11.43
2017-10-14T02:04:43.534Z,10.70
2017-10-14T02:07:11.290Z,12.63
2017-10-14T02:09:38.817Z,20.10
2017-10-14T02:12:07.118Z,13.50
2017-10-14T02:14:34.620Z,17.53
2017-10-14T02:17:02.951Z,15.43
2017-10-14T02:19:30.577Z,15.13
2017-10-14T02:21:58.144Z,14.50
2017-10-14T02:24:25.655Z,17.13
2017-10-14T02:26:53.205Z,14.90
2017-10-14T02:29:20.699Z,18.17
2017-10-14T02:31:48.246Z,14.90
2017-10-14T02:34:15.754Z,18.13
2017-10-14T02:36:43.251Z,10.37
2017-10-14T02:39:10.781Z,15.23
2017-10-14T02:41:38.288Z,16.43
2017-10-14T02:44:05.841Z,13.33
2017-10-14T02:46:33.370Z,16.30
2017-10-14T02:49:00.896Z,8.60
2017-10-14T02:51:29.158Z,12.17
2017-10-14T02:53:56.678Z,13.80
2017-10-14T02:56:24.303Z,11.93
2017-10-14T02:58:51.807Z,13.10
2017-10-14T03:01:20.099Z,13.67
2017-10-14T03:03:48.366Z,10.93
2017-10-14T03:06:15.920Z,14.23
2017-10-14T03:08:43.432Z,20.30
2017-10-14T03:11:11.294Z,21.33
2017-10-14T03:13:38.796Z,20.23
2017-10-14T03:16:06.293Z,15.07
2017-10-14T03:18:33.847Z,15.43
2017-10-14T03:21:01.348Z,13.13
2017-10-14T03:23:28.922Z,12.07
2017-10-14T03:25:56.423Z,14.17
2017-10-14T03:28:24.564Z,9.97
2017-10-14T03:30:53.715Z,22.30
2017-10-14T03:33:21.256Z,15.90
2017-10-14T03:35:48.761Z,17.23
2017-10-14T03:38:16.322Z,13.03
2017-10-14T03:40:43.826Z,19.10
2017-10-14T03:43:11.338Z,19.73
2017-10-14T03:45:38.869Z,19.57
2017-10-14T03:48:06.383Z,23.37
2017-10-14T03:50:33.919Z,17.10
2017-10-14T03:53:01.422Z,17.40
2017-10-14T03:55:28.958Z,13.87
2017-10-14T03:57:56.470Z,17.27
2017-10-14T04:00:24.058Z,29.40
2017-10-14T04:02:51.557Z,22.33
2017-10-14T04:05:19.252Z,22.00
2017-10-14T04:07:47.553Z,18.27
2017-10-14T04:10:15.062Z,25.73
2017-10-14T04:12:42.595Z,19.10
2017-10-14T04:15:10.101Z,23.00
2017-10-14T04:17:37.638Z,22.83
2017-10-14T04:20:05.142Z,24.60
2017-10-14T04:22:32.683Z,23.23
2017-10-14T04:25:00.199Z,24.70
2017-10-14T04:27:27.738Z,21.50
2017-10-14T04:29:55.262Z,27.70
2017-10-14T04:32:22.897Z,26.33
2017-10-14T04:34:50.409Z,25.60
2017-10-14T04:37:17.906Z,27.83
2017-10-14T04:39:45.446Z,28.13
2017-10-14T04:42:12.960Z,30.10
2017-10-14T04:44:40.499Z,24.83
2017-10-14T04:47:08.783Z,23.20
2017-10-14T04:49:36.330Z,24.30
2017-10-14T04:52:03.836Z,27.83
2017-10-14T04:54:32.162Z,23.70
2017-10-14T04:56:59.703Z,25.47
2017-10-14T04:59:28.034Z,23.60
2017-10-14T05:01:55.533Z,31.83
2017-10-14T05:04:23.030Z,25.60
2017-10-14T05:06:50.612Z,39.27
2017-10-14T05:09:18.156Z,30.83
2017-10-14T05:11:45.685Z,28.37
2017-10-14T05:14:13.210Z,38.90
2017-10-14T05:16:40.751Z,28.80
2017-10-14T05:19:08.291Z,30.93
2017-10-14T05:21:35.849Z,32.60
2017-10-14T05:24:03.353Z,40.93
2017-10-14T05:26:30.911Z,31.60
2017-10-14T05:28:58.430Z,35.20
2017-10-14T05:31:25.947Z,41.23
2017-10-14T05:33:53.514Z,38.60
2017-10-14T05:36:21.061Z,39.13
2017-10-14T05:38:48.647Z,37.87
2017-10-14T05:41:16.175Z,36.00
2017-10-14T05:43:44.107Z,38.37
2017-10-14T05:46:11.644Z,38.80
2017-10-14T05:48:39.277Z,31.37
2017-10-14T05:51:06.782Z,33.93
2017-10-14T05:53:34.345Z,36.33
2017-10-14T05:56:01.851Z,31.03
2017-10-14T05:58:30.126Z,26.67
2017-10-14T06:00:57.780Z,32.27
2017-10-14T06:03:25.304Z,35.03
2017-10-14T06:05:53.601Z,33.77
2017-10-14T06:08:21.109Z,30.87
2017-10-14T06:10:48.646Z,29.90
2017-10-14T06:13:16.174Z,36.30
2017-10-14T06:15:43.716Z,30.10
2017-10-14T06:18:11.224Z,29.70
2017-10-14T06:20:38.785Z,35.70
2017-10-14T06:23:06.290Z,31.30
2017-10-14T06:25:34.558Z,29.43
2017-10-14T06:28:02.089Z,32.90
2017-10-14T06:30:29.606Z,29.40
2017-10-14T06:32:57.148Z,27.67
2017-10-14T06:35:24.645Z,27.57
2017-10-14T06:37:52.182Z,28.80
2017-10-14T06:40:19.688Z,30.48
2017-10-14T06:42:47.281Z,17.73
2017-10-14T06:45:15.553Z,21.07
2017-10-14T06:47:43.085Z,14.30
2017-10-14T06:50:10.585Z,15.00
2017-10-14T06:52:38.141Z,12.60
2017-10-14T06:55:05.634Z,11.43
2017-10-14T06:57:33.151Z,18.13
2017-10-14T07:00:00.681Z,14.43
2017-10-14T07:02:29.201Z,12.03
2017-10-14T07:04:56.731Z,9.30
2017-10-14T07:07:24.239Z,12.60
2017-10-14T07:09:51.764Z,14.77
2017-10-14T07:12:19.279Z,8.40
2017-10-14T07:14:47.584Z,12.60
2017-10-14T07:17:15.115Z,11.93
2017-10-14T07:19:42.655Z,11.70
2017-10-14T07:22:10.145Z,10.60
2017-10-14T07:24:37.693Z,11.37
2017-10-14T07:27:05.201Z,17.90
2017-10-14T07:29:32.702Z,11.93
2017-10-14T07:32:00.225Z,7.67
2017-10-14T07:34:27.725Z,10.80
2017-10-14T07:36:55.249Z,9.87
2017-10-14T07:39:22.751Z,7.93
2017-10-14T07:41:50.301Z,9.80
2017-10-14T07:44:17.807Z,16.40
2017-10-14T07:46:45.346Z,8.80
2017-10-14T07:49:12.834Z,6.63
2017-10-14T07:51:40.333Z,12.37
2017-10-14T07:54:07.863Z,9.50
2017-10-14T07:56:35.370Z,14.80
2017-10-14T07:59:02.917Z,6.33
2017-10-14T08:01:30.531Z,6.57
2017-10-14T08:03:58.115Z,6.63
2017-10-14T08:06:25.614Z,8.83
2017-10-14T08:08:53.150Z,11.17
2017-10-14T08:11:21.450Z,7.60
2017-10-14T08:13:48.956Z,7.07
2017-10-14T08:16:16.488Z,6.60
2017-10-14T08:18:43.994Z,17.00
2017-10-14T08:21:11.522Z,6.60
2017-10-14T08:23:40.713Z,9.00
2017-10-14T08:26:08.261Z,8.67
2017-10-14T08:28:35.871Z,8.37
2017-10-14T08:31:04.195Z,6.00
2017-10-14T08:33:31.686Z,6.93
2017-10-14T08:35:59.190Z,9.87
2017-10-14T08:38:26.742Z,5.23
2017-10-14T08:40:54.280Z,5.90
2017-10-14T08:43:21.929Z,10.13
2017-10-14T08:45:50.188Z,5.33
2017-10-14T08:48:17.726Z,10.40
2017-10-14T08:50:45.226Z,8.80
2017-10-14T08:53:12.758Z,6.37
2017-10-14T08:55:40.265Z,5.73
2017-10-14T08:58:07.802Z,4.70
2017-10-14T09:00:36.478Z,6.97
2017-10-14T09:03:04.820Z,4.07
2017-10-14T09:05:32.319Z,4.90
2017-10-14T09:07:59.834Z,7.47
2017-10-14T09:10:27.373Z,7.30
2017-10-14T09:12:55.635Z,4.37
2017-10-14T09:15:23.171Z,4.10
2017-10-14T09:17:50.684Z,4.33
2017-10-14T09:20:18.227Z,5.17
2017-10-14T09:22:45.742Z,3.70
2017-10-14T09:25:13.262Z,7.77
2017-10-14T09:27:40.794Z,6.20
2017-10-14T09:30:09.158Z,5.40
2017-10-14T09:32:36.657Z,5.70
2017-10-14T09:35:04.922Z,4.73
2017-10-14T09:37:32.598Z,6.23
2017-10-14T09:40:00.895Z,3.60
2017-10-14T09:42:28.466Z,4.53
2017-10-14T09:44:55.962Z,6.03
2017-10-14T09:47:24.263Z,3.73
2017-10-14T09:49:51.774Z,6.17
2017-10-14T09:52:19.301Z,3.27
2017-10-14T09:54:46.795Z,4.13
2017-10-14T09:57:14.349Z,6.43
2017-10-14T09:59:41.846Z,7.87
2017-10-14T10:02:09.391Z,6.70
2017-10-14T10:04:36.897Z,5.57
2017-10-14T10:07:04.398Z,5.27
2017-10-14T10:09:31.930Z,3.20
2017-10-14T10:11:59.438Z,5.23
2017-10-14T10:14:26.984Z,2.03
2017-10-14T10:16:54.483Z,4.97
2017-10-14T10:19:22.026Z,10.20
2017-10-14T10:21:49.645Z,6.63
2017-10-14T10:24:17.210Z,3.90
2017-10-14T10:26:44.770Z,7.80
2017-10-14T10:29:12.298Z,4.97
2017-10-14T10:31:39.790Z,3.93
2017-10-14T10:34:07.426Z,2.50
2017-10-14T10:36:34.915Z,3.20
2017-10-14T10:39:02.406Z,4.60
2017-10-14T10:41:29.929Z,2.90
2017-10-14T10:43:58.200Z,2.80
2017-10-14T10:46:26.508Z,3.80
2017-10-14T10:48:54.774Z,4.23
2017-10-14T10:51:22.297Z,2.43
2017-10-14T10:53:49.808Z,8.67
2017-10-14T10:56:17.354Z,12.70
2017-10-14T10:58:44.891Z,43.67
2017-10-14T11:01:12.434Z,15.70
2017-10-14T11:03:39.997Z,23.77
2017-10-14T11:06:07.504Z,30.10
2017-10-14T11:08:35.803Z,4.87
2017-10-14T11:11:03.300Z,10.03
2017-10-14T11:13:30.831Z,8.47
2017-10-14T11:15:59.107Z,17.43
2017-10-14T11:18:26.659Z,8.97
2017-10-14T11:20:54.162Z,3.60
2017-10-14T11:23:21.678Z,5.00
2017-10-14T11:25:49.213Z,5.10
2017-10-14T11:28:16.722Z,3.47
2017-10-14T11:30:44.254Z,6.00
2017-10-14T11:33:11.775Z,4.83
2017-10-14T11:35:39.330Z,3.37
2017-10-14T11:38:06.853Z,4.90
2017-10-14T11:40:34.451Z,6.40
2017-10-14T11:43:01.958Z,11.80
2017-10-14T11:45:29.471Z,6.67
2017-10-14T11:47:57.006Z,3.60
2017-10-14T11:50:24.498Z,5.40
2017-10-14T11:52:52.047Z,1.43
2017-10-14T11:55:19.557Z,5.33
2017-10-14T11:57:47.116Z,3.70
2017-10-14T12:00:14.614Z,2.43
2017-10-14T12:02:42.888Z,2.13
2017-10-14T12:05:10.414Z,2.27
2017-10-14T12:07:37.919Z,1.77
2017-10-14T12:10:05.461Z,3.80
2017-10-14T12:12:32.963Z,2.00
2017-10-14T12:15:00.489Z,4.40
2017-10-14T12:17:28.008Z,3.63
2017-10-14T12:19:55.570Z,6.17
2017-10-14T12:22:23.076Z,2.20
2017-10-14T12:24:50.597Z,4.87
2017-10-14T12:27:18.137Z,2.40
2017-10-14T12:29:45.633Z,2.30
2017-10-14T12:32:13.171Z,2.07
2017-10-14T12:34:40.661Z,1.57
2017-10-14T12:37:08.206Z,3.23
2017-10-14T12:39:36.486Z,4.70
2017-10-14T12:42:04.283Z,5.57
2017-10-14T12:44:31.789Z,5.37
2017-10-14T12:46:59.290Z,4.40
2017-10-14T12:49:26.814Z,3.80
2017-10-14T12:51:54.307Z,2.90
2017-10-14T12:54:21.863Z,2.97
2017-10-14T12:56:49.355Z,2.30
2017-10-14T12:59:16.905Z,3.07
2017-10-14T13:01:44.399Z,4.90
2017-10-14T13:04:11.966Z,1.60
2017-10-14T13:06:39.465Z,2.77
2017-10-14T13:09:06.971Z,1.90
2017-10-14T13:11:34.511Z,1.60
2017-10-14T13:14:02.003Z,2.60
2017-10-14T13:16:30.329Z,1.37
2017-10-14T13:18:57.822Z,1.73
2017-10-14T13:21:25.379Z,5.33
2017-10-14T13:23:52.881Z,3.10
2017-10-14T13:26:20.395Z,7.20
2017-10-14T13:28:47.975Z,2.40
2017-10-14T13:31:15.501Z,2.80
2017-10-14T13:33:43.988Z,6.27
2017-10-14T13:36:11.487Z,5.03
2017-10-14T13:38:39.808Z,2.87
2017-10-14T13:41:07.319Z,6.60
2017-10-14T13:43:35.744Z,3.17
2017-10-14T13:46:04.047Z,1.95
2017-10-14T13:48:31.549Z,1.60
2017-10-14T13:50:59.099Z,3.33
2017-10-14T13:53:26.604Z,8.93
2017-10-14T13:55:54.146Z,4.23
2017-10-14T13:58:21.651Z,1.70
2017-10-14T14:00:49.206Z,3.00
2017-10-14T14:03:16.719Z,3.10
2017-10-14T14:05:44.991Z,2.67
2017-10-14T14:08:12.562Z,1.80
2017-10-14T14:10:40.197Z,3.80
2017-10-14T14:13:08.575Z,4.40
2017-10-14T14:15:36.086Z,1.67
2017-10-14T14:18:03.615Z,2.30
2017-10-14T14:20:31.119Z,2.60
2017-10-14T14:22:58.666Z,3.57
2017-10-14T14:25:26.187Z,3.13
2017-10-14T14:27:53.686Z,2.07
2017-10-14T14:30:21.239Z,7.23
2017-10-14T14:32:48.760Z,1.60
2017-10-14T14:35:16.302Z,6.00
2017-10-14T14:37:44.578Z,2.83
2017-10-14T14:40:12.130Z,7.07
2017-10-14T14:42:39.643Z,2.37
2017-10-14T14:45:07.141Z,9.20
2017-10-14T14:47:34.685Z,6.37
2017-10-14T14:50:02.197Z,4.27
2017-10-14T14:52:29.773Z,1.80
2017-10-14T14:54:57.335Z,4.07
2017-10-14T14:57:24.881Z,1.83
2017-10-14T14:59:52.403Z,2.00
2017-10-14T15:02:20.000Z,3.00
2017-10-14T15:04:47.519Z,2.07
2017-10-14T15:07:15.026Z,1.47
2017-10-14T15:09:42.806Z,3.33
2017-10-14T15:12:10.294Z,1.90
2017-10-14T15:14:38.615Z,5.03
2017-10-14T15:17:06.128Z,2.23
2017-10-14T15:19:33.666Z,2.10
2017-10-14T15:22:01.162Z,3.00
2017-10-14T15:24:28.788Z,4.73
2017-10-14T15:26:56.289Z,5.37
2017-10-14T15:29:23.782Z,4.20
2017-10-14T15:31:51.311Z,11.60
2017-10-14T15:34:18.834Z,2.73
2017-10-14T15:36:46.357Z,3.77
2017-10-14T15:39:13.892Z,5.33
2017-10-14T15:41:41.434Z,3.00
2017-10-14T15:44:08.937Z,7.63
2017-10-14T15:46:36.479Z,3.90
2017-10-14T15:49:03.994Z,3.17
2017-10-14T15:51:32.317Z,4.83
2017-10-14T15:53:59.823Z,7.40
2017-10-14T15:56:27.353Z,2.90
2017-10-14T15:58:54.958Z,7.87
2017-10-14T16:01:22.461Z,2.30
2017-10-14T16:03:50.070Z,2.83
2017-10-14T16:06:17.571Z,4.30
2017-10-14T16:08:45.118Z,7.93
2017-10-14T16:11:12.619Z,3.57
2017-10-14T16:13:40.196Z,2.23
2017-10-14T16:16:07.712Z,5.73
2017-10-14T16:18:35.217Z,2.40
2017-10-14T16:21:02.746Z,2.33
2017-10-14T16:23:31.018Z,3.87
2017-10-14T16:25:58.869Z,4.20
2017-10-14T16:28:26.395Z,3.20
2017-10-14T16:30:53.942Z,3.80
2017-10-14T16:33:21.450Z,4.00
2017-10-14T16:35:49.683Z,8.53
2017-10-14T16:38:17.275Z,4.23
2017-10-14T16:40:47.692Z,2.67
2017-10-14T16:43:15.223Z,4.93
2017-10-14T16:45:42.778Z,3.40
2017-10-14T16:48:10.296Z,3.83
2017-10-14T16:50:37.801Z,5.43
2017-10-14T16:53:05.342Z,3.87
2017-10-14T16:55:33.303Z,3.23
2017-10-14T16:58:00.845Z,6.40
2017-10-14T17:00:28.378Z,7.13
2017-10-14T17:02:55.938Z,10.10
2017-10-14T17:05:23.463Z,7.77
2017-10-14T17:07:50.986Z,4.80
2017-10-14T17:10:18.530Z,6.30
2017-10-14T17:12:46.048Z,4.70
2017-10-14T17:15:13.601Z,8.63
2017-10-14T17:17:41.113Z,8.30
2017-10-14T17:20:08.646Z,9.03
2017-10-14T17:22:36.155Z,18.30
2017-10-14T17:25:04.466Z,16.27
2017-10-14T17:27:31.971Z,15.10
2017-10-14T17:29:59.525Z,17.20
2017-10-14T17:32:27.025Z,15.00
2017-10-14T17:34:54.581Z,14.80
2017-10-14T17:37:22.122Z,8.33
2017-10-14T17:39:49.625Z,14.97
2017-10-14T17:42:17.295Z,10.00
2017-10-14T17:44:44.813Z,8.00
2017-10-14T17:47:12.393Z,7.60
2017-10-14T17:49:39.917Z,12.70
2017-10-14T17:52:07.561Z,10.60
2017-10-14T17:54:35.066Z,9.80
2017-10-14T17:57:02.616Z,15.43
2017-10-14T17:59:30.145Z,7.60
2017-10-14T18:01:57.716Z,14.37
2017-10-14T18:04:25.269Z,11.23
2017-10-14T18:06:52.781Z,9.37
2017-10-14T18:09:20.468Z,15.93
2017-10-14T18:11:47.987Z,7.43
2017-10-14T18:14:15.543Z,5.67
2017-10-14T18:16:43.041Z,7.17
2017-10-14T18:19:10.577Z,12.53
2017-10-14T18:21:38.083Z,4.83
2017-10-14T18:24:05.622Z,5.37
2017-10-14T18:26:33.128Z,7.90
2017-10-14T18:29:01.096Z,8.50
2017-10-14T18:31:28.624Z,7.63
2017-10-14T18:33:56.918Z,12.23
2017-10-14T18:36:24.426Z,7.63
2017-10-14T18:38:51.999Z,8.90
2017-10-14T18:41:19.678Z,8.70
2017-10-14T18:43:48.046Z,11.27
2017-10-14T18:46:15.572Z,9.83
2017-10-14T18:48:43.106Z,15.67
2017-10-14T18:51:10.612Z,13.50
2017-10-14T18:53:38.697Z,11.70
2017-10-14T18:56:07.098Z,14.40
2017-10-14T18:58:35.415Z,8.80
2017-10-14T19:01:02.974Z,7.23
2017-10-14T19:03:31.247Z,11.30
2017-10-14T19:05:59.558Z,6.93
2017-10-14T19:08:29.784Z,12.90
2017-10-14T19:10:58.091Z,15.67
2017-10-14T19:13:25.593Z,14.10
2017-10-14T19:15:53.163Z,9.30
2017-10-14T19:18:21.506Z,8.90
2017-10-14T19:20:49.047Z,8.67
2017-10-14T19:23:16.554Z,9.63
2017-10-14T19:25:44.108Z,12.57
2017-10-14T19:28:11.654Z,19.83
2017-10-14T19:30:39.184Z,23.30
2017-10-14T19:33:06.726Z,15.00
2017-10-14T19:35:35.014Z,10.50
2017-10-14T19:38:02.563Z,9.37
2017-10-14T19:40:30.097Z,9.80
2017-10-14T19:42:57.659Z,8.70
2017-10-14T19:45:25.181Z,10.93
2017-10-14T19:47:52.842Z,13.17
2017-10-14T19:50:20.541Z,9.97
2017-10-14T19:52:48.063Z,7.77
2017-10-14T19:55:15.606Z,15.10
2017-10-14T19:57:43.906Z,10.57
2017-10-14T20:00:12.222Z,18.00
2017-10-14T20:02:39.729Z,12.13
2017-10-14T20:05:07.289Z,10.53
2017-10-14T20:07:34.965Z,10.13
2017-10-14T20:10:02.514Z,12.40
2017-10-14T20:12:30.934Z,12.13
2017-10-14T20:14:58.824Z,8.97
2017-10-14T20:17:26.375Z,14.77
2017-10-14T20:19:53.914Z,11.97
2017-10-14T20:22:21.469Z,7.80
2017-10-14T20:24:48.976Z,12.27
2017-10-14T20:27:16.620Z,15.57
2017-10-14T20:29:44.248Z,18.80
2017-10-14T20:32:11.876Z,18.93
2017-10-14T20:34:39.398Z,20.33
2017-10-14T20:37:06.999Z,15.83
2017-10-14T20:39:35.418Z,11.57
2017-10-14T20:42:02.922Z,12.00
2017-10-14T20:44:30.505Z,17.67
2017-10-14T20:46:58.102Z,12.70
2017-10-14T20:49:25.634Z,13.13
2017-10-14T20:51:53.139Z,14.40
2017-10-14T20:54:20.674Z,14.47
2017-10-14T20:56:48.174Z,14.50
2017-10-14T20:59:15.713Z,16.37
2017-10-14T21:01:43.226Z,21.20
2017-10-14T21:04:10.778Z,16.63
2017-10-14T21:06:38.281Z,19.93
2017-10-14T21:09:05.783Z,16.17
2017-10-14T21:11:33.353Z,25.33
2017-10-14T21:14:00.878Z,21.20
2017-10-14T21:16:28.471Z,25.17
2017-10-14T21:18:56.047Z,15.40
2017-10-14T21:21:23.577Z,20.03
2017-10-14T21:23:51.183Z,23.53
2017-10-14T21:26:18.803Z,12.07
2017-10-14T21:28:46.568Z,11.37
2017-10-14T21:31:14.104Z,12.13
2017-10-14T21:33:41.694Z,19.10
2017-10-14T21:36:09.220Z,22.70
2017-10-14T21:38:36.799Z,15.77
2017-10-14T21:41:04.354Z,21.77
2017-10-14T21:43:31.892Z,17.90
2017-10-14T21:46:00.191Z,20.53
2017-10-14T21:48:27.833Z,14.67
2017-10-14T21:50:55.402Z,30.63
2017-10-14T21:53:22.958Z,15.53
2017-10-14T21:55:50.495Z,17.33
2017-10-14T21:58:18.030Z,14.07
2017-10-14T22:00:46.460Z,15.73
2017-10-14T22:03:14.026Z,12.20
2017-10-14T22:05:41.575Z,21.03
2017-10-14T22:08:09.868Z,16.30
2017-10-14T22:10:38.189Z,18.80
2017-10-14T22:13:05.702Z,19.23
2017-10-14T22:15:33.257Z,24.77
2017-10-14T22:18:00.779Z,19.03
2017-10-14T22:20:28.375Z,24.03
2017-10-14T22:22:55.902Z,19.93
2017-10-14T22:25:23.463Z,15.13
2017-10-14T22:27:51.005Z,21.70
2017-10-14T22:30:18.549Z,23.97
2017-10-14T22:32:46.170Z,15.53
2017-10-14T22:35:13.692Z,22.60
2017-10-14T22:37:41.242Z,14.00
2017-10-14T22:40:09.538Z,25.40
2017-10-14T22:42:37.048Z,17.13
2017-10-14T22:45:04.652Z,14.83
2017-10-14T22:47:32.156Z,10.57
2017-10-14T22:50:00.483Z,13.73
2017-10-14T22:52:28.026Z,17.17
2017-10-14T22:54:55.630Z,23.40
2017-10-14T22:57:23.156Z,23.00
2017-10-14T22:59:51.461Z,24.87
2017-10-14T23:02:19.000Z,27.90
2017-10-14T23:04:46.554Z,20.17
2017-10-14T23:07:14.065Z,15.60
2017-10-14T23:09:42.342Z,23.27
2017-10-14T23:12:09.879Z,23.20
2017-10-14T23:14:37.405Z,22.77
2017-10-14T23:17:05.715Z,22.73
2017-10-14T23:19:33.219Z,18.60
2017-10-14T23:22:00.771Z,27.97
2017-10-14T23:24:28.295Z,21.83
2017-10-14T23:26:55.839Z,22.87
2017-10-14T23:29:23.347Z,23.33
2017-10-14T23:31:50.918Z,17.80
2017-10-14T23:34:18.431Z,23.50
2017-10-14T23:36:45.941Z,25.93
2017-10-14T23:39:13.478Z,23.20
2017-10-14T23:41:40.993Z,21.93
2017-10-14T23:44:09.311Z,16.57
2017-10-14T23:46:36.826Z,19.80
2017-10-14T23:49:04.363Z,17.57
2017-10-14T23:51:31.868Z,20.10
2017-10-14T23:53:59.429Z,17.03
2017-10-14T23:56:26.945Z,24.93
2017-10-14T23:58:54.512Z,22.83
